createdAt,value
2023-05-21T00:00:14.572Z,8.87
2023-05-21T00:02:44.113Z,9.43
2023-05-21T00:05:15.915Z,9.40
2023-05-21T00:07:45.676Z,9.34
2023-05-21T00:10:15.575Z,9.78
2023-05-21T00:12:44.732Z,9.30
2023-05-21T00:15:15.302Z,9.16
2023-05-21T00:17:45.776Z,9.44
2023-05-21T00:20:15.221Z,9.26
2023-05-21T00:22:45.156Z,8.78
2023-05-21T00:25:14.804Z,8.98
2023-05-21T00:27:44.005Z,8.91
2023-05-21T00:30:13.337Z,9.33
2023-05-21T00:32:42.528Z,9.09
2023-05-21T00:35:11.922Z,9.24
2023-05-21T00:37:42.104Z,9.49
2023-05-21T00:40:12.896Z,9.31
2023-05-21T00:42:42.834Z,9.72
2023-05-21T00:45:12.301Z,9.46
2023-05-21T00:47:42.948Z,9.33
2023-05-21T00:50:13.420Z,9.78
2023-05-21T00:52:43.859Z,9.58
2023-05-21T00:55:13.320Z,9.65
2023-05-21T00:57:43.869Z,9.49
2023-05-21T01:00:15.824Z,9.74
2023-05-21T01:02:45.856Z,9.45
2023-05-21T01:05:16.736Z,8.78
2023-05-21T01:07:46.029Z,9.60
2023-05-21T01:10:15.494Z,9.46
2023-05-21T01:12:47.490Z,9.35
2023-05-21T01:15:17.251Z,9.57
2023-05-21T01:17:47.236Z,9.29
2023-05-21T01:20:21.738Z,9.49
2023-05-21T01:22:57.311Z,9.70
2023-05-21T01:25:27.295Z,8.94
2023-05-21T01:27:56.662Z,9.20
2023-05-21T01:30:27.146Z,9.35
2023-05-21T01:33:06.599Z,9.08
2023-05-21T01:35:49.655Z,8.81
2023-05-21T01:38:40.160Z,8.97
2023-05-21T01:41:19.517Z,8.82
2023-05-21T01:43:49.834Z,8.82
2023-05-21T01:46:24.831Z,8.98
2023-05-21T01:48:57.438Z,8.71
2023-05-21T01:51:27.914Z,8.97
2023-05-21T01:53:57.049Z,8.50
2023-05-21T01:56:27.140Z,8.64
2023-05-21T01:59:01.024Z,8.51
2023-05-21T02:01:33.246Z,8.55
2023-05-21T02:04:03.050Z,8.60
2023-05-21T02:06:33.134Z,8.47
2023-05-21T02:09:02.311Z,8.41
2023-05-21T02:11:31.733Z,8.42
2023-05-21T02:14:01.859Z,8.73
2023-05-21T02:16:31.081Z,8.13
2023-05-21T02:19:02.032Z,8.10
2023-05-21T02:21:31.217Z,8.36
2023-05-21T02:24:00.368Z,8.04
2023-05-21T02:26:30.230Z,8.47
2023-05-21T02:28:59.535Z,8.35
2023-05-21T02:31:28.785Z,8.23
2023-05-21T02:33:58.210Z,7.88
2023-05-21T02:36:30.028Z,7.71
2023-05-21T02:38:59.167Z,7.97
2023-05-21T02:41:28.353Z,8.08
2023-05-21T02:43:57.614Z,8.15
2023-05-21T02:46:26.929Z,8.11
2023-05-21T02:48:56.321Z,8.15
2023-05-21T02:51:25.538Z,8.07
2023-05-21T02:53:54.811Z,7.77
2023-05-21T02:56:24.595Z,7.49
2023-05-21T02:58:53.808Z,8.17
2023-05-21T03:01:23.157Z,7.91
2023-05-21T03:03:52.371Z,8.10
2023-05-21T03:06:21.974Z,7.91
2023-05-21T03:08:51.251Z,7.78
2023-05-21T03:11:21.948Z,7.76
2023-05-21T03:13:51.142Z,8.08
2023-05-21T03:16:20.844Z,7.97
2023-05-21T03:18:50.569Z,7.90
2023-05-21T03:21:19.899Z,7.66
2023-05-21T03:23:49.046Z,7.84
2023-05-21T03:26:18.240Z,7.75
2023-05-21T03:28:47.338Z,8.14
2023-05-21T03:31:16.640Z,7.92
2023-05-21T03:33:45.820Z,7.96
2023-05-21T03:36:15.034Z,7.85
2023-05-21T03:38:44.258Z,7.61
2023-05-21T03:41:13.494Z,7.56
2023-05-21T03:43:42.797Z,7.68
2023-05-21T03:46:12.167Z,8.10
2023-05-21T03:48:41.783Z,7.75
2023-05-21T03:51:10.928Z,7.67
2023-05-21T03:53:40.354Z,7.63
2023-05-21T03:56:09.718Z,7.52
2023-05-21T03:58:39.569Z,7.37
2023-05-21T04:01:10.151Z,7.51
2023-05-21T04:03:40.750Z,7.69
2023-05-21T04:06:11.806Z,7.53
2023-05-21T04:08:41.027Z,7.63
2023-05-21T04:11:10.401Z,7.72
2023-05-21T04:13:40.682Z,7.50
2023-05-21T04:16:15.768Z,7.37
2023-05-21T04:18:45.695Z,7.37
2023-05-21T04:21:15.268Z,7.74
2023-05-21T04:23:44.449Z,7.64
2023-05-21T04:26:13.977Z,7.49
2023-05-21T04:28:43.862Z,7.70
2023-05-21T04:31:14.832Z,7.32
2023-05-21T04:33:47.098Z,7.65
2023-05-21T04:36:18.494Z,7.58
2023-05-21T04:38:47.788Z,7.75
2023-05-21T04:41:20.117Z,7.47
2023-05-21T04:43:49.538Z,7.52
2023-05-21T04:46:18.759Z,7.77
2023-05-21T04:48:48.206Z,7.36
2023-05-21T04:51:17.545Z,7.37
2023-05-21T04:53:47.412Z,7.25
2023-05-21T04:56:16.597Z,7.32
2023-05-21T04:58:46.353Z,7.53
2023-05-21T05:01:16.636Z,7.61
2023-05-21T05:03:47.611Z,7.26
2023-05-21T05:06:18.507Z,7.25
2023-05-21T05:08:47.773Z,7.38
2023-05-21T05:11:16.960Z,7.59
2023-05-21T05:13:46.146Z,7.68
2023-05-21T05:16:20.615Z,7.40
2023-05-21T05:18:49.921Z,7.56
2023-05-21T05:21:19.047Z,7.44
2023-05-21T05:23:48.279Z,7.39
2023-05-21T05:26:17.495Z,7.04
2023-05-21T05:28:47.556Z,7.25
2023-05-21T05:31:17.171Z,7.27
2023-05-21T05:33:46.593Z,7.35
2023-05-21T05:36:15.931Z,7.44
2023-05-21T05:38:45.057Z,7.69
2023-05-21T05:41:14.324Z,7.37
2023-05-21T05:43:43.500Z,7.02
2023-05-21T05:46:12.776Z,7.02
2023-05-21T05:48:42.199Z,7.40
2023-05-21T05:51:13.077Z,7.24
2023-05-21T05:53:42.375Z,7.31
2023-05-21T05:56:11.768Z,7.13
2023-05-21T05:58:40.991Z,7.10
2023-05-21T06:01:10.186Z,7.53
2023-05-21T06:03:39.491Z,6.87
2023-05-21T06:06:08.922Z,6.78
2023-05-21T06:08:39.270Z,7.07
2023-05-21T06:11:08.642Z,6.88
2023-05-21T06:13:37.930Z,7.38
2023-05-21T06:16:07.842Z,7.23
2023-05-21T06:18:37.293Z,7.41
2023-05-21T06:21:06.495Z,7.06
2023-05-21T06:23:37.970Z,7.09
2023-05-21T06:26:07.619Z,7.27
2023-05-21T06:28:37.540Z,6.93
2023-05-21T06:31:06.717Z,6.77
2023-05-21T06:33:36.051Z,7.20
2023-05-21T06:36:05.466Z,7.05
2023-05-21T06:38:34.540Z,6.85
2023-05-21T06:41:05.421Z,7.12
2023-05-21T06:43:34.585Z,7.00
2023-05-21T06:46:04.021Z,6.73
2023-05-21T06:48:33.344Z,7.24
2023-05-21T06:51:02.396Z,7.08
2023-05-21T06:53:31.756Z,6.74
2023-05-21T06:56:00.909Z,7.17
2023-05-21T06:58:32.616Z,6.99
2023-05-21T07:01:02.889Z,6.98
2023-05-21T07:03:32.635Z,7.17
2023-05-21T07:06:02.362Z,6.87
2023-05-21T07:08:32.637Z,6.98
2023-05-21T07:11:01.976Z,7.14
2023-05-21T07:13:32.137Z,7.04
2023-05-21T07:16:01.477Z,6.85
2023-05-21T07:18:30.637Z,6.89
2023-05-21T07:21:00.374Z,7.05
2023-05-21T07:23:29.632Z,6.82
2023-05-21T07:25:58.785Z,7.10
2023-05-21T07:28:27.923Z,6.84
2023-05-21T07:30:57.129Z,6.74
2023-05-21T07:33:26.337Z,6.55
2023-05-21T07:35:55.638Z,7.00
2023-05-21T07:38:24.820Z,6.68
2023-05-21T07:40:54.029Z,7.16
2023-05-21T07:43:23.208Z,6.94
2023-05-21T07:45:52.473Z,7.13
2023-05-21T07:48:21.620Z,7.14
2023-05-21T07:50:51.258Z,6.85
2023-05-21T07:53:21.286Z,6.74
2023-05-21T07:55:50.440Z,6.51
2023-05-21T07:58:21.451Z,6.62
2023-05-21T08:00:52.210Z,6.77
2023-05-21T08:03:21.857Z,6.76
2023-05-21T08:05:51.978Z,6.96
2023-05-21T08:08:23.404Z,6.70
2023-05-21T08:10:52.698Z,6.78
2023-05-21T08:13:22.146Z,6.79
2023-05-21T08:15:53.112Z,6.85
2023-05-21T08:18:24.921Z,6.65
2023-05-21T08:20:54.498Z,6.84
2023-05-21T08:23:23.659Z,6.68
2023-05-21T08:25:54.533Z,6.66
2023-05-21T08:28:24.870Z,6.70
2023-05-21T08:30:54.099Z,6.87
2023-05-21T08:33:23.434Z,6.75
2023-05-21T08:35:52.727Z,6.95
2023-05-21T08:38:21.908Z,6.53
2023-05-21T08:40:55.175Z,6.34
2023-05-21T08:43:26.826Z,7.00
2023-05-21T08:45:57.699Z,6.60
2023-05-21T08:48:26.886Z,6.56
2023-05-21T08:50:56.949Z,6.74
2023-05-21T08:53:29.297Z,6.70
2023-05-21T08:55:59.041Z,6.49
2023-05-21T08:58:28.212Z,6.40
2023-05-21T09:00:57.685Z,6.39
2023-05-21T09:03:27.909Z,6.62
2023-05-21T09:05:57.919Z,6.67
2023-05-21T09:08:37.046Z,6.51
2023-05-21T09:11:06.347Z,6.66
2023-05-21T09:13:38.173Z,6.70
2023-05-21T09:16:09.092Z,6.53
2023-05-21T09:18:38.389Z,6.78
2023-05-21T09:21:31.210Z,6.72
2023-05-21T09:24:02.964Z,6.44
2023-05-21T09:26:32.233Z,6.41
2023-05-21T09:29:02.742Z,6.41
2023-05-21T09:31:32.293Z,6.15
2023-05-21T09:34:02.143Z,6.37
2023-05-21T09:36:31.404Z,6.36
2023-05-21T09:39:01.936Z,6.42
2023-05-21T09:41:38.279Z,6.34
2023-05-21T09:44:07.698Z,6.30
2023-05-21T09:46:41.928Z,6.50
2023-05-21T09:49:32.501Z,6.56
2023-05-21T09:52:01.888Z,6.48
2023-05-21T09:54:36.267Z,6.48
2023-05-21T09:57:05.618Z,6.57
2023-05-21T09:59:41.346Z,6.50
2023-05-21T10:02:25.021Z,6.40
2023-05-21T10:04:55.806Z,6.41
2023-05-21T10:07:28.249Z,6.31
2023-05-21T10:10:01.486Z,6.26
2023-05-21T10:12:33.651Z,6.30
2023-05-21T10:15:06.127Z,6.18
2023-05-21T10:17:35.911Z,6.18
2023-05-21T10:20:06.368Z,6.24
2023-05-21T10:22:37.224Z,6.67
2023-05-21T10:25:08.626Z,5.87
2023-05-21T10:27:39.531Z,6.41
2023-05-21T10:30:09.902Z,6.56
2023-05-21T10:32:45.566Z,6.47
2023-05-21T10:35:18.555Z,6.75
2023-05-21T10:37:48.248Z,6.48
2023-05-21T10:40:17.480Z,6.58
2023-05-21T10:43:47.956Z,6.74
2023-05-21T10:46:49.444Z,6.48
2023-05-21T10:49:26.596Z,6.14
2023-05-21T10:52:27.126Z,6.36
2023-05-21T10:55:38.238Z,6.50
2023-05-21T10:58:32.684Z,6.50
2023-05-21T11:01:05.449Z,6.63
2023-05-21T11:03:37.928Z,6.57
2023-05-21T11:06:09.655Z,6.54
2023-05-21T11:08:40.033Z,6.34
2023-05-21T11:11:09.612Z,6.60
2023-05-21T11:13:52.730Z,6.68
2023-05-21T11:16:27.236Z,6.26
2023-05-21T11:18:56.691Z,6.33
2023-05-21T11:21:29.787Z,6.70
2023-05-21T11:24:06.108Z,6.40
2023-05-21T11:26:51.486Z,7.09
2023-05-21T11:29:21.179Z,7.38
2023-05-21T11:32:06.975Z,7.42
2023-05-21T11:34:53.722Z,7.65
2023-05-21T11:37:25.544Z,7.32
2023-05-21T11:39:55.298Z,7.46
2023-05-21T11:42:35.496Z,8.02
2023-05-21T11:45:05.741Z,7.72
2023-05-21T11:47:35.093Z,7.99
2023-05-21T11:50:06.669Z,7.84
2023-05-21T11:52:36.010Z,8.25
2023-05-21T11:55:06.780Z,8.35
2023-05-21T11:57:36.212Z,8.47
2023-05-21T12:00:15.371Z,8.97
2023-05-21T12:02:53.649Z,9.06
2023-05-21T12:05:23.858Z,8.94
2023-05-21T12:07:53.431Z,8.95
2023-05-21T12:10:25.628Z,9.14
2023-05-21T12:12:57.347Z,9.59
2023-05-21T12:15:28.801Z,9.83
2023-05-21T12:17:59.005Z,9.55
2023-05-21T12:20:29.495Z,9.62
2023-05-21T12:23:00.621Z,9.81
2023-05-21T12:25:31.186Z,9.94
2023-05-21T12:28:03.202Z,10.38
2023-05-21T12:30:32.790Z,10.16
2023-05-21T12:33:03.438Z,10.16
2023-05-21T12:35:33.506Z,9.75
2023-05-21T12:38:04.277Z,9.53
2023-05-21T12:40:41.554Z,9.46
2023-05-21T12:43:11.092Z,9.62
2023-05-21T12:45:41.267Z,9.84
2023-05-21T12:48:10.689Z,9.78
2023-05-21T12:50:43.393Z,9.46
2023-05-21T12:53:13.376Z,9.66
2023-05-21T12:55:42.590Z,9.34
2023-05-21T12:58:16.127Z,9.32
2023-05-21T13:00:46.673Z,9.66
2023-05-21T13:03:15.896Z,9.66
2023-05-21T13:05:45.980Z,9.28
2023-05-21T13:08:16.891Z,9.56
2023-05-21T13:10:46.026Z,9.16
2023-05-21T13:13:15.179Z,9.27
2023-05-21T13:15:44.542Z,9.22
2023-05-21T13:18:13.834Z,9.23
2023-05-21T13:20:43.110Z,9.89
2023-05-21T13:23:12.444Z,10.80
2023-05-21T13:25:41.658Z,12.33
2023-05-21T13:28:14.055Z,12.29
2023-05-21T13:30:43.314Z,12.11
2023-05-21T13:33:13.306Z,12.35
2023-05-21T13:35:42.576Z,11.86
2023-05-21T13:38:11.804Z,11.12
2023-05-21T13:40:41.247Z,10.81
2023-05-21T13:43:10.562Z,10.23
2023-05-21T13:45:40.234Z,9.79
2023-05-21T13:48:09.611Z,9.78
2023-05-21T13:50:38.882Z,9.10
2023-05-21T13:53:08.271Z,8.60
2023-05-21T13:55:37.760Z,8.60
2023-05-21T13:58:07.267Z,8.49
2023-05-21T14:00:36.625Z,8.03
2023-05-21T14:03:08.946Z,7.74
2023-05-21T14:05:38.810Z,7.25
2023-05-21T14:08:09.462Z,7.13
2023-05-21T14:10:38.893Z,6.82
2023-05-21T14:13:19.112Z,6.76
2023-05-21T14:15:49.863Z,6.38
2023-05-21T14:18:19.209Z,6.32
2023-05-21T14:20:48.424Z,6.10
2023-05-21T14:23:17.670Z,6.08
2023-05-21T14:25:46.895Z,6.16
2023-05-21T14:28:16.017Z,5.86
2023-05-21T14:30:45.215Z,6.14
2023-05-21T14:33:14.596Z,5.82
2023-05-21T14:35:45.375Z,5.45
2023-05-21T14:38:14.594Z,5.17
2023-05-21T14:40:43.616Z,5.47
2023-05-21T14:43:12.768Z,5.33
2023-05-21T14:45:42.081Z,5.10
2023-05-21T14:48:11.292Z,5.14
2023-05-21T14:50:41.469Z,5.13
2023-05-21T14:53:13.297Z,4.95
2023-05-21T14:55:42.714Z,5.19
2023-05-21T14:58:12.093Z,5.19
2023-05-21T15:00:41.584Z,5.15
2023-05-21T15:03:11.026Z,5.19
2023-05-21T15:05:40.521Z,5.19
2023-05-21T15:08:10.987Z,5.31
2023-05-21T15:10:40.258Z,5.29
2023-05-21T15:13:09.427Z,4.75
2023-05-21T15:15:38.864Z,4.81
2023-05-21T15:18:08.426Z,5.26
2023-05-21T15:20:37.711Z,4.93
2023-05-21T15:23:15.916Z,4.96
2023-05-21T15:25:46.872Z,4.73
2023-05-21T15:28:16.124Z,5.00
2023-05-21T15:30:45.393Z,4.78
2023-05-21T15:33:14.613Z,4.89
2023-05-21T15:35:44.298Z,5.06
2023-05-21T15:38:13.748Z,4.93
2023-05-21T15:40:43.496Z,4.67
2023-05-21T15:43:12.657Z,5.06
2023-05-21T15:45:42.028Z,5.00
2023-05-21T15:48:13.434Z,5.20
2023-05-21T15:50:42.878Z,4.81
2023-05-21T15:53:13.156Z,5.14
2023-05-21T15:55:42.397Z,4.71
2023-05-21T15:58:11.681Z,4.93
2023-05-21T16:00:40.873Z,4.87
2023-05-21T16:03:10.385Z,4.92
2023-05-21T16:05:39.851Z,5.19
2023-05-21T16:08:11.828Z,5.01
2023-05-21T16:10:41.323Z,4.95
2023-05-21T16:13:10.436Z,4.93
2023-05-21T16:15:39.683Z,5.01
2023-05-21T16:18:10.783Z,4.96
2023-05-21T16:20:40.638Z,4.86
2023-05-21T16:23:10.122Z,5.13
2023-05-21T16:25:39.498Z,5.15
2023-05-21T16:28:08.693Z,4.82
2023-05-21T16:30:37.787Z,5.20
2023-05-21T16:33:07.246Z,5.02
2023-05-21T16:35:36.860Z,5.07
2023-05-21T16:38:06.189Z,5.32
2023-05-21T16:40:35.480Z,4.91
2023-05-21T16:43:04.712Z,5.07
2023-05-21T16:45:42.020Z,4.95
2023-05-21T16:48:13.138Z,5.04
2023-05-21T16:50:42.620Z,5.12
2023-05-21T16:53:12.671Z,5.14
2023-05-21T16:55:43.798Z,5.13
2023-05-21T16:58:14.893Z,5.07
2023-05-21T17:00:44.048Z,5.08
2023-05-21T17:03:13.868Z,5.08
2023-05-21T17:05:43.452Z,5.25
2023-05-21T17:08:12.712Z,5.21
2023-05-21T17:10:42.017Z,5.28
2023-05-21T17:13:21.644Z,5.45
2023-05-21T17:15:53.357Z,5.12
2023-05-21T17:18:22.599Z,5.10
2023-05-21T17:20:51.855Z,5.35
2023-05-21T17:23:21.173Z,5.24
2023-05-21T17:25:50.221Z,5.33
2023-05-21T17:28:20.601Z,5.13
2023-05-21T17:30:50.103Z,4.88
2023-05-21T17:33:19.452Z,5.59
2023-05-21T17:35:48.670Z,5.23
2023-05-21T17:38:17.875Z,5.55
2023-05-21T17:40:47.071Z,5.44
2023-05-21T17:43:16.439Z,5.32
2023-05-21T17:45:45.619Z,5.03
2023-05-21T17:48:14.878Z,5.30
2023-05-21T17:50:44.222Z,5.75
2023-05-21T17:53:14.238Z,5.36
2023-05-21T17:55:43.569Z,5.57
2023-05-21T17:58:13.071Z,5.61
2023-05-21T18:00:42.290Z,5.56
2023-05-21T18:03:12.175Z,5.36
2023-05-21T18:05:41.396Z,5.61
2023-05-21T18:08:13.679Z,5.57
2023-05-21T18:10:42.993Z,5.47
2023-05-21T18:13:12.127Z,5.40
2023-05-21T18:15:42.121Z,5.28
2023-05-21T18:18:21.269Z,5.35
2023-05-21T18:20:51.797Z,5.22
2023-05-21T18:23:21.096Z,5.58
2023-05-21T18:25:50.312Z,5.53
2023-05-21T18:28:19.453Z,5.42
2023-05-21T18:30:48.690Z,5.49
2023-05-21T18:33:18.268Z,5.59
2023-05-21T18:35:47.457Z,5.71
2023-05-21T18:38:16.804Z,5.43
2023-05-21T18:40:46.081Z,5.73
2023-05-21T18:43:15.811Z,5.77
2023-05-21T18:45:45.405Z,5.79
2023-05-21T18:48:15.188Z,5.72
2023-05-21T18:50:44.270Z,5.79
2023-05-21T18:53:13.364Z,5.73
2023-05-21T18:55:42.698Z,5.84
2023-05-21T18:58:12.070Z,6.05
2023-05-21T19:00:41.323Z,6.04
2023-05-21T19:03:10.566Z,5.91
2023-05-21T19:05:39.909Z,5.72
2023-05-21T19:08:09.005Z,5.81
2023-05-21T19:10:40.485Z,6.01
2023-05-21T19:13:09.854Z,6.08
2023-05-21T19:15:40.244Z,6.01
2023-05-21T19:18:09.986Z,6.19
2023-05-21T19:20:39.433Z,6.02
2023-05-21T19:23:08.730Z,6.01
2023-05-21T19:25:37.913Z,5.97
2023-05-21T19:28:07.133Z,6.09
2023-05-21T19:30:37.444Z,6.37
2023-05-21T19:33:07.544Z,6.27
2023-05-21T19:35:37.307Z,6.45
2023-05-21T19:38:06.993Z,6.56
2023-05-21T19:40:36.357Z,6.11
2023-05-21T19:43:06.002Z,6.62
2023-05-21T19:45:35.334Z,6.29
2023-05-21T19:48:04.850Z,6.57
2023-05-21T19:50:33.977Z,6.31
2023-05-21T19:53:03.064Z,6.46
2023-05-21T19:55:36.541Z,6.59
2023-05-21T19:58:05.871Z,6.75
2023-05-21T20:00:35.253Z,6.58
2023-05-21T20:03:04.522Z,6.76
2023-05-21T20:05:33.732Z,6.42
2023-05-21T20:08:02.872Z,6.70
2023-05-21T20:10:32.067Z,6.44
2023-05-21T20:13:01.213Z,6.51
2023-05-21T20:15:30.490Z,6.58
2023-05-21T20:18:00.429Z,6.47
2023-05-21T20:20:29.804Z,6.39
2023-05-21T20:22:58.926Z,6.54
2023-05-21T20:25:27.982Z,6.47
2023-05-21T20:27:58.393Z,6.80
2023-05-21T20:30:32.845Z,6.62
2023-05-21T20:33:05.889Z,6.34
2023-05-21T20:35:35.015Z,6.43
2023-05-21T20:38:04.079Z,6.42
2023-05-21T20:40:36.505Z,6.25
2023-05-21T20:43:06.612Z,6.62
2023-05-21T20:45:37.235Z,6.57
2023-05-21T20:48:07.862Z,6.48
2023-05-21T20:50:38.533Z,6.69
2023-05-21T20:53:08.221Z,6.05
2023-05-21T20:55:45.454Z,6.47
2023-05-21T20:58:14.830Z,6.49
2023-05-21T21:00:45.972Z,6.22
2023-05-21T21:03:18.913Z,6.27
2023-05-21T21:05:48.311Z,6.46
2023-05-21T21:08:20.771Z,6.58
2023-05-21T21:10:50.360Z,6.53
2023-05-21T21:13:19.547Z,6.46
2023-05-21T21:15:48.752Z,6.56
2023-05-21T21:18:18.812Z,6.20
2023-05-21T21:20:50.717Z,6.46
2023-05-21T21:23:19.960Z,6.35
2023-05-21T21:25:49.081Z,6.39
2023-05-21T21:28:18.502Z,6.51
2023-05-21T21:30:47.978Z,6.41
2023-05-21T21:33:17.800Z,6.29
2023-05-21T21:35:47.083Z,6.43
2023-05-21T21:38:16.123Z,6.29
2023-05-21T21:40:45.280Z,6.22
2023-05-21T21:43:14.414Z,6.20
2023-05-21T21:45:43.536Z,6.49
2023-05-21T21:48:12.755Z,6.36
2023-05-21T21:50:41.956Z,6.35
2023-05-21T21:53:11.207Z,6.35
2023-05-21T21:55:40.472Z,6.47
2023-05-21T21:58:09.701Z,6.39
2023-05-21T22:00:38.927Z,6.27
2023-05-21T22:03:08.263Z,6.29
2023-05-21T22:05:37.519Z,6.14
2023-05-21T22:08:07.271Z,6.42
2023-05-21T22:10:39.486Z,6.41
2023-05-21T22:13:09.098Z,6.17
2023-05-21T22:15:38.985Z,6.37
2023-05-21T22:18:10.563Z,6.44
2023-05-21T22:20:40.638Z,6.24
2023-05-21T22:23:09.865Z,6.16
2023-05-21T22:25:39.167Z,6.31
2023-05-21T22:28:08.488Z,6.44
2023-05-21T22:30:39.854Z,6.18
2023-05-21T22:33:09.353Z,6.27
2023-05-21T22:35:38.562Z,6.27
2023-05-21T22:38:07.809Z,6.54
2023-05-21T22:40:37.296Z,6.40
2023-05-21T22:43:07.015Z,6.12
2023-05-21T22:45:37.217Z,6.18
2023-05-21T22:48:09.965Z,6.60
2023-05-21T22:50:40.232Z,6.70
2023-05-21T22:53:09.580Z,6.04
2023-05-21T22:55:38.691Z,6.64
2023-05-21T22:58:07.947Z,6.45
2023-05-21T23:00:37.192Z,6.28
2023-05-21T23:03:06.757Z,6.34
2023-05-21T23:05:35.963Z,6.87
2023-05-21T23:08:05.151Z,6.77
2023-05-21T23:10:34.368Z,6.42
2023-05-21T23:13:03.540Z,6.43
2023-05-21T23:15:33.098Z,6.25
2023-05-21T23:18:05.100Z,6.38
2023-05-21T23:20:34.869Z,6.69
2023-05-21T23:23:04.834Z,6.78
2023-05-21T23:25:35.741Z,6.56
2023-05-21T23:28:06.150Z,6.47
2023-05-21T23:30:35.400Z,6.76
2023-05-21T23:33:04.773Z,6.56
2023-05-21T23:35:34.018Z,6.33
2023-05-21T23:38:03.164Z,6.64
2023-05-21T23:40:32.311Z,6.67
2023-05-21T23:43:01.713Z,6.93
2023-05-21T23:45:30.975Z,6.82
2023-05-21T23:48:00.153Z,7.00
2023-05-21T23:50:29.577Z,7.41
2023-05-21T23:52:59.014Z,7.24
2023-05-21T23:55:28.459Z,7.45
2023-05-21T23:57:57.673Z,7.01
